sensor_id;sensor_type;location;lat;lon;timestamp;pressure;altitude;pressure_sealevel;temperature;humidity
27685;BME280;46113;50.130;8.526;2023-04-07T00:00:00;99127.41;;;3.43;73.85
27685;BME280;46113;50.130;8.526;2023-04-07T00:02:37;99129.63;;;3.57;73.11
27685;BME280;46113;50.130;8.526;2023-04-07T00:05:04;99126.78;;;3.65;72.65
27685;BME280;46113;50.130;8.526;2023-04-07T00:07:31;99118.81;;;3.69;72.54
27685;BME280;46113;50.130;8.526;2023-04-07T00:10:05;99116.75;;;3.49;73.76
27685;BME280;46113;50.130;8.526;2023-04-07T00:12:33;99115.06;;;3.48;74.19
27685;BME280;46113;50.130;8.526;2023-04-07T00:14:59;99112.22;;;3.56;74.12
27685;BME280;46113;50.130;8.526;2023-04-07T00:17:26;99115.97;;;3.17;75.29
27685;BME280;46113;50.130;8.526;2023-04-07T00:19:52;99107.69;;;3.32;74.51
27685;BME280;46113;50.130;8.526;2023-04-07T00:22:19;99119.09;;;3.00;73.92
27685;BME280;46113;50.130;8.526;2023-04-07T00:24:45;99108.16;;;3.17;73.45
27685;BME280;46113;50.130;8.526;2023-04-07T00:27:12;99105.09;;;3.31;74.13
27685;BME280;46113;50.130;8.526;2023-04-07T00:29:39;99095.50;;;3.31;74.34
27685;BME280;46113;50.130;8.526;2023-04-07T00:32:05;99094.09;;;3.50;73.49
27685;BME280;46113;50.130;8.526;2023-04-07T00:34:32;99096.75;;;3.48;73.94
27685;BME280;46113;50.130;8.526;2023-04-07T00:36:59;99085.78;;;3.37;75.20
27685;BME280;46113;50.130;8.526;2023-04-07T00:39:26;99086.38;;;3.45;74.47
27685;BME280;46113;50.130;8.526;2023-04-07T00:41:53;99088.75;;;3.24;74.68
27685;BME280;46113;50.130;8.526;2023-04-07T00:44:19;99085.56;;;3.43;73.65
27685;BME280;46113;50.130;8.526;2023-04-07T00:46:46;99078.47;;;3.46;73.68
27685;BME280;46113;50.130;8.526;2023-04-07T00:49:15;99076.78;;;3.45;73.20
27685;BME280;46113;50.130;8.526;2023-04-07T00:51:44;99074.31;;;3.11;73.34
27685;BME280;46113;50.130;8.526;2023-04-07T00:54:24;99073.81;;;2.98;73.85
27685;BME280;46113;50.130;8.526;2023-04-07T00:56:52;99069.00;;;2.84;74.07
27685;BME280;46113;50.130;8.526;2023-04-07T00:59:20;99070.81;;;2.81;74.70
27685;BME280;46113;50.130;8.526;2023-04-07T01:02:06;99062.81;;;3.16;73.73
27685;BME280;46113;50.130;8.526;2023-04-07T01:07:17;99058.13;;;3.28;74.49
27685;BME280;46113;50.130;8.526;2023-04-07T01:10:02;99056.66;;;3.19;74.63
27685;BME280;46113;50.130;8.526;2023-04-07T01:12:53;99055.41;;;3.31;74.89
27685;BME280;46113;50.130;8.526;2023-04-07T01:15:26;99051.38;;;3.20;74.67
27685;BME280;46113;50.130;8.526;2023-04-07T01:18:04;99051.78;;;2.78;75.61
27685;BME280;46113;50.130;8.526;2023-04-07T01:20:33;99047.19;;;3.15;74.73
27685;BME280;46113;50.130;8.526;2023-04-07T01:23:04;99040.78;;;3.25;74.00
27685;BME280;46113;50.130;8.526;2023-04-07T01:31:11;99043.06;;;3.07;75.96
27685;BME280;46113;50.130;8.526;2023-04-07T01:33:38;99045.03;;;2.99;76.03
27685;BME280;46113;50.130;8.526;2023-04-07T01:36:09;99041.19;;;3.11;75.12
27685;BME280;46113;50.130;8.526;2023-04-07T01:38:37;99039.13;;;2.62;77.24
27685;BME280;46113;50.130;8.526;2023-04-07T01:41:04;99038.06;;;2.70;78.85
27685;BME280;46113;50.130;8.526;2023-04-07T01:43:32;99033.56;;;2.75;77.82
27685;BME280;46113;50.130;8.526;2023-04-07T01:46:00;99032.53;;;2.80;77.19
27685;BME280;46113;50.130;8.526;2023-04-07T01:48:28;99030.69;;;2.84;77.72
27685;BME280;46113;50.130;8.526;2023-04-07T01:50:56;99031.78;;;2.75;78.82
27685;BME280;46113;50.130;8.526;2023-04-07T01:53:24;99029.63;;;2.60;77.61
27685;BME280;46113;50.130;8.526;2023-04-07T01:55:52;99026.38;;;2.83;77.56
27685;BME280;46113;50.130;8.526;2023-04-07T01:58:19;99024.81;;;3.06;76.68
27685;BME280;46113;50.130;8.526;2023-04-07T02:00:47;99035.25;;;3.06;76.25
27685;BME280;46113;50.130;8.526;2023-04-07T02:03:21;99024.75;;;3.07;75.76
27685;BME280;46113;50.130;8.526;2023-04-07T02:05:54;99023.41;;;3.23;75.62
27685;BME280;46113;50.130;8.526;2023-04-07T02:08:27;99019.69;;;3.31;75.56
27685;BME280;46113;50.130;8.526;2023-04-07T02:10:57;99021.59;;;3.26;75.78
27685;BME280;46113;50.130;8.526;2023-04-07T02:13:31;99011.28;;;3.20;76.12
27685;BME280;46113;50.130;8.526;2023-04-07T02:16:00;99015.84;;;2.85;77.05
27685;BME280;46113;50.130;8.526;2023-04-07T02:18:29;99013.72;;;2.67;77.92
27685;BME280;46113;50.130;8.526;2023-04-07T02:20:58;99015.03;;;2.82;78.14
27685;BME280;46113;50.130;8.526;2023-04-07T02:23:26;99012.69;;;3.03;77.36
27685;BME280;46113;50.130;8.526;2023-04-07T02:25:56;99008.00;;;3.13;76.98
27685;BME280;46113;50.130;8.526;2023-04-07T02:28:23;99007.25;;;2.81;78.27
27685;BME280;46113;50.130;8.526;2023-04-07T02:30:50;98996.44;;;3.22;76.74
27685;BME280;46113;50.130;8.526;2023-04-07T02:33:17;99004.44;;;3.16;75.66
27685;BME280;46113;50.130;8.526;2023-04-07T02:35:43;99003.28;;;3.26;75.60
27685;BME280;46113;50.130;8.526;2023-04-07T02:38:10;98996.97;;;3.32;75.51
27685;BME280;46113;50.130;8.526;2023-04-07T02:40:37;99002.50;;;2.94;76.94
27685;BME280;46113;50.130;8.526;2023-04-07T02:43:04;99001.84;;;3.16;76.49
27685;BME280;46113;50.130;8.526;2023-04-07T02:45:31;98996.94;;;3.33;75.83
27685;BME280;46113;50.130;8.526;2023-04-07T02:47:58;98994.03;;;3.43;75.49
27685;BME280;46113;50.130;8.526;2023-04-07T02:50:24;98998.09;;;3.52;75.19
27685;BME280;46113;50.130;8.526;2023-04-07T02:52:51;98997.03;;;3.30;74.47
27685;BME280;46113;50.130;8.526;2023-04-07T02:55:18;98996.91;;;3.35;74.50
27685;BME280;46113;50.130;8.526;2023-04-07T02:57:45;98995.94;;;3.38;74.84
27685;BME280;46113;50.130;8.526;2023-04-07T03:00:24;98993.03;;;3.47;74.21
27685;BME280;46113;50.130;8.526;2023-04-07T03:03:06;98993.81;;;3.49;74.00
27685;BME280;46113;50.130;8.526;2023-04-07T03:05:36;98987.03;;;3.43;74.91
27685;BME280;46113;50.130;8.526;2023-04-07T03:08:04;98993.59;;;3.57;74.86
27685;BME280;46113;50.130;8.526;2023-04-07T03:10:31;98981.97;;;3.39;75.77
27685;BME280;46113;50.130;8.526;2023-04-07T03:12:57;98981.75;;;3.45;75.00
27685;BME280;46113;50.130;8.526;2023-04-07T03:15:24;98986.88;;;3.21;76.40
27685;BME280;46113;50.130;8.526;2023-04-07T03:17:51;98984.41;;;3.43;75.10
27685;BME280;46113;50.130;8.526;2023-04-07T03:20:19;98991.56;;;3.10;77.12
27685;BME280;46113;50.130;8.526;2023-04-07T03:22:46;98984.19;;;3.23;75.54
27685;BME280;46113;50.130;8.526;2023-04-07T03:25:21;98983.88;;;3.33;75.04
27685;BME280;46113;50.130;8.526;2023-04-07T03:27:49;98981.78;;;3.43;75.05
27685;BME280;46113;50.130;8.526;2023-04-07T03:30:17;98980.69;;;3.51;74.50
27685;BME280;46113;50.130;8.526;2023-04-07T03:32:44;98981.66;;;3.21;77.23
27685;BME280;46113;50.130;8.526;2023-04-07T03:35:12;98987.69;;;2.94;78.51
27685;BME280;46113;50.130;8.526;2023-04-07T03:37:38;98977.44;;;3.17;76.62
27685;BME280;46113;50.130;8.526;2023-04-07T03:40:11;98974.22;;;3.07;77.68
27685;BME280;46113;50.130;8.526;2023-04-07T03:42:37;98979.50;;;2.77;77.77
27685;BME280;46113;50.130;8.526;2023-04-07T03:45:06;98986.03;;;2.92;77.91
27685;BME280;46113;50.130;8.526;2023-04-07T03:47:36;98971.72;;;3.04;76.91
27685;BME280;46113;50.130;8.526;2023-04-07T03:50:04;98970.56;;;3.13;76.56
27685;BME280;46113;50.130;8.526;2023-04-07T03:52:37;98966.06;;;3.18;76.08
27685;BME280;46113;50.130;8.526;2023-04-07T03:55:13;98967.78;;;2.90;76.87
27685;BME280;46113;50.130;8.526;2023-04-07T03:57:40;98971.28;;;3.18;76.09
27685;BME280;46113;50.130;8.526;2023-04-07T04:00:08;98969.81;;;2.80;77.82
27685;BME280;46113;50.130;8.526;2023-04-07T04:02:41;98970.66;;;3.10;76.98
27685;BME280;46113;50.130;8.526;2023-04-07T04:05:12;98977.66;;;2.80;76.84
27685;BME280;46113;50.130;8.526;2023-04-07T04:07:39;98966.31;;;3.10;76.39
27685;BME280;46113;50.130;8.526;2023-04-07T04:10:07;98970.47;;;2.87;76.88
27685;BME280;46113;50.130;8.526;2023-04-07T04:12:39;98967.06;;;2.85;77.51
27685;BME280;46113;50.130;8.526;2023-04-07T04:15:09;98964.88;;;2.71;77.69
27685;BME280;46113;50.130;8.526;2023-04-07T04:17:37;98963.09;;;3.00;76.94
27685;BME280;46113;50.130;8.526;2023-04-07T04:20:05;98967.97;;;3.13;76.29
27685;BME280;46113;50.130;8.526;2023-04-07T04:22:45;98968.97;;;2.80;77.50
27685;BME280;46113;50.130;8.526;2023-04-07T04:25:11;98973.16;;;3.14;76.02
27685;BME280;46113;50.130;8.526;2023-04-07T04:27:43;98971.66;;;3.05;76.98
27685;BME280;46113;50.130;8.526;2023-04-07T04:30:16;98968.09;;;3.08;76.84
27685;BME280;46113;50.130;8.526;2023-04-07T04:32:50;98970.25;;;2.65;77.95
27685;BME280;46113;50.130;8.526;2023-04-07T04:35:21;98974.59;;;2.96;76.70
27685;BME280;46113;50.130;8.526;2023-04-07T04:38:01;98969.75;;;3.11;76.07
27685;BME280;46113;50.130;8.526;2023-04-07T04:40:27;98970.38;;;2.62;78.63
27685;BME280;46113;50.130;8.526;2023-04-07T04:42:56;98972.22;;;2.88;76.80
27685;BME280;46113;50.130;8.526;2023-04-07T04:45:23;98969.66;;;3.14;76.47
27685;BME280;46113;50.130;8.526;2023-04-07T04:47:51;98973.81;;;3.21;76.06
27685;BME280;46113;50.130;8.526;2023-04-07T04:50:17;98975.84;;;2.82;77.36
27685;BME280;46113;50.130;8.526;2023-04-07T04:52:45;98980.94;;;2.57;77.06
27685;BME280;46113;50.130;8.526;2023-04-07T04:55:18;98978.38;;;2.25;79.83
27685;BME280;46113;50.130;8.526;2023-04-07T04:57:45;98973.91;;;2.89;77.32
27685;BME280;46113;50.130;8.526;2023-04-07T05:00:17;98971.41;;;3.13;76.39
27685;BME280;46113;50.130;8.526;2023-04-07T05:02:46;98974.84;;;3.15;76.37
27685;BME280;46113;50.130;8.526;2023-04-07T05:05:14;98976.56;;;2.88;76.90
27685;BME280;46113;50.130;8.526;2023-04-07T05:07:42;98979.00;;;2.64;78.22
27685;BME280;46113;50.130;8.526;2023-04-07T05:10:11;98979.03;;;2.62;78.30
27685;BME280;46113;50.130;8.526;2023-04-07T05:12:44;98976.72;;;3.12;76.50
27685;BME280;46113;50.130;8.526;2023-04-07T05:15:11;98981.16;;;2.49;78.14
27685;BME280;46113;50.130;8.526;2023-04-07T05:17:39;98978.00;;;2.98;76.62
27685;BME280;46113;50.130;8.526;2023-04-07T05:20:10;98972.66;;;2.73;78.49
27685;BME280;46113;50.130;8.526;2023-04-07T05:22:39;98979.97;;;2.90;77.81
27685;BME280;46113;50.130;8.526;2023-04-07T05:25:10;98969.13;;;3.04;76.92
27685;BME280;46113;50.130;8.526;2023-04-07T05:27:38;98972.06;;;3.20;75.71
27685;BME280;46113;50.130;8.526;2023-04-07T05:30:11;98976.47;;;3.19;76.13
27685;BME280;46113;50.130;8.526;2023-04-07T05:32:38;98974.84;;;3.15;76.00
27685;BME280;46113;50.130;8.526;2023-04-07T05:35:16;98974.38;;;3.02;76.59
27685;BME280;46113;50.130;8.526;2023-04-07T05:37:49;98971.50;;;3.12;77.05
27685;BME280;46113;50.130;8.526;2023-04-07T05:40:16;98969.47;;;3.20;76.04
27685;BME280;46113;50.130;8.526;2023-04-07T05:42:44;98970.00;;;3.31;75.87
27685;BME280;46113;50.130;8.526;2023-04-07T05:45:11;98967.75;;;3.19;75.80
27685;BME280;46113;50.130;8.526;2023-04-07T05:47:41;98967.91;;;3.14;75.88
27685;BME280;46113;50.130;8.526;2023-04-07T05:50:10;98974.59;;;2.96;76.75
27685;BME280;46113;50.130;8.526;2023-04-07T05:52:41;98966.16;;;3.15;76.40
27685;BME280;46113;50.130;8.526;2023-04-07T05:55:18;98962.88;;;3.08;77.16
27685;BME280;46113;50.130;8.526;2023-04-07T05:57:45;98968.91;;;3.37;75.96
27685;BME280;46113;50.130;8.526;2023-04-07T06:55:10;98988.56;;;4.03;73.43
27685;BME280;46113;50.130;8.526;2023-04-07T06:57:42;98978.25;;;3.73;73.60
27685;BME280;46113;50.130;8.526;2023-04-07T07:00:26;98980.66;;;3.79;72.75
27685;BME280;46113;50.130;8.526;2023-04-07T07:03:28;98978.25;;;3.98;73.20
27685;BME280;46113;50.130;8.526;2023-04-07T07:11:24;98984.16;;;4.29;73.02
27685;BME280;46113;50.130;8.526;2023-04-07T07:15:14;98986.25;;;4.19;72.46
27685;BME280;46113;50.130;8.526;2023-04-07T07:23:17;98981.13;;;4.64;71.73
27685;BME280;46113;50.130;8.526;2023-04-07T07:26:00;98982.06;;;4.15;72.93
27685;BME280;46113;50.130;8.526;2023-04-07T07:29:25;98988.31;;;4.11;73.26
27685;BME280;46113;50.130;8.526;2023-04-07T07:31:59;98989.53;;;4.50;74.01
27685;BME280;46113;50.130;8.526;2023-04-07T07:34:26;98986.09;;;4.72;71.46
27685;BME280;46113;50.130;8.526;2023-04-07T07:36:53;99000.19;;;4.45;73.43
